sensor_id;sensor_type;location;lat;lon;timestamp;P1;durP1;ratioP1;P2;durP2;ratioP2
48526;SDS011;34317;51.660;5.824;2022-07-12T00:00:14;4.00;;;2.28;;
48526;SDS011;34317;51.660;5.824;2022-07-12T00:02:41;3.83;;;2.22;;
48526;SDS011;34317;51.660;5.824;2022-07-12T00:05:08;2.85;;;2.42;;
48526;SDS011;34317;51.660;5.824;2022-07-12T00:07:35;3.38;;;2.40;;
48526;SDS011;34317;51.660;5.824;2022-07-12T00:10:03;2.90;;;2.60;;
48526;SDS011;34317;51.660;5.824;2022-07-12T00:12:30;2.60;;;2.03;;
48526;SDS011;34317;51.660;5.824;2022-07-12T00:14:59;2.38;;;2.05;;
48526;SDS011;34317;51.660;5.824;2022-07-12T00:17:26;2.20;;;1.95;;
48526;SDS011;34317;51.660;5.824;2022-07-12T00:19:53;4.53;;;1.83;;
48526;SDS011;34317;51.660;5.824;2022-07-12T00:22:20;2.85;;;2.40;;
48526;SDS011;34317;51.660;5.824;2022-07-12T00:24:49;5.13;;;2.30;;
48526;SDS011;34317;51.660;5.824;2022-07-12T00:27:16;3.22;;;2.28;;
48526;SDS011;34317;51.660;5.824;2022-07-12T00:29:43;3.10;;;2.30;;
48526;SDS011;34317;51.660;5.824;2022-07-12T00:32:10;3.08;;;2.15;;
48526;SDS011;34317;51.660;5.824;2022-07-12T00:34:37;3.08;;;1.90;;
48526;SDS011;34317;51.660;5.824;2022-07-12T00:37:05;2.63;;;2.10;;
48526;SDS011;34317;51.660;5.824;2022-07-12T00:39:32;5.03;;;2.15;;
48526;SDS011;34317;51.660;5.824;2022-07-12T00:41:59;3.85;;;2.05;;
48526;SDS011;34317;51.660;5.824;2022-07-12T00:44:26;2.40;;;2.15;;
48526;SDS011;34317;51.660;5.824;2022-07-12T00:46:53;3.03;;;1.95;;
48526;SDS011;34317;51.660;5.824;2022-07-12T00:49:21;3.15;;;2.00;;
48526;SDS011;34317;51.660;5.824;2022-07-12T00:51:51;2.90;;;2.00;;
48526;SDS011;34317;51.660;5.824;2022-07-12T00:54:21;2.25;;;1.80;;
48526;SDS011;34317;51.660;5.824;2022-07-12T00:56:49;2.90;;;1.80;;
48526;SDS011;34317;51.660;5.824;2022-07-12T00:59:16;3.40;;;1.60;;
48526;SDS011;34317;51.660;5.824;2022-07-12T01:01:43;2.30;;;1.80;;
48526;SDS011;34317;51.660;5.824;2022-07-12T01:04:12;3.10;;;1.98;;
48526;SDS011;34317;51.660;5.824;2022-07-12T01:06:40;3.40;;;2.22;;
48526;SDS011;34317;51.660;5.824;2022-07-12T01:09:07;3.80;;;2.15;;
48526;SDS011;34317;51.660;5.824;2022-07-12T01:11:35;3.47;;;2.53;;
48526;SDS011;34317;51.660;5.824;2022-07-12T01:14:02;2.17;;;1.88;;
48526;SDS011;34317;51.660;5.824;2022-07-12T01:16:31;4.40;;;1.88;;
48526;SDS011;34317;51.660;5.824;2022-07-12T01:19:00;6.65;;;2.33;;
48526;SDS011;34317;51.660;5.824;2022-07-12T01:21:28;2.55;;;2.00;;
48526;SDS011;34317;51.660;5.824;2022-07-12T01:23:59;2.75;;;1.67;;
48526;SDS011;34317;51.660;5.824;2022-07-12T01:26:28;4.05;;;1.77;;
48526;SDS011;34317;51.660;5.824;2022-07-12T01:28:55;3.00;;;1.60;;
48526;SDS011;34317;51.660;5.824;2022-07-12T01:31:23;2.33;;;1.40;;
48526;SDS011;34317;51.660;5.824;2022-07-12T01:33:51;2.22;;;1.77;;
48526;SDS011;34317;51.660;5.824;2022-07-12T01:36:19;3.20;;;1.60;;
48526;SDS011;34317;51.660;5.824;2022-07-12T01:38:46;1.88;;;1.65;;
48526;SDS011;34317;51.660;5.824;2022-07-12T01:41:13;3.13;;;1.80;;
48526;SDS011;34317;51.660;5.824;2022-07-12T01:43:40;3.90;;;1.70;;
48526;SDS011;34317;51.660;5.824;2022-07-12T01:46:07;2.20;;;1.55;;
48526;SDS011;34317;51.660;5.824;2022-07-12T01:48:34;3.63;;;1.73;;
48526;SDS011;34317;51.660;5.824;2022-07-12T01:51:01;2.72;;;1.92;;
48526;SDS011;34317;51.660;5.824;2022-07-12T01:53:29;3.45;;;1.75;;
48526;SDS011;34317;51.660;5.824;2022-07-12T01:55:56;2.47;;;2.08;;
48526;SDS011;34317;51.660;5.824;2022-07-12T01:58:23;2.60;;;1.90;;
48526;SDS011;34317;51.660;5.824;2022-07-12T02:00:51;2.70;;;2.10;;
48526;SDS011;34317;51.660;5.824;2022-07-12T02:03:19;2.72;;;2.40;;
48526;SDS011;34317;51.660;5.824;2022-07-12T02:05:46;3.05;;;2.15;;
48526;SDS011;34317;51.660;5.824;2022-07-12T02:08:13;3.53;;;2.05;;
48526;SDS011;34317;51.660;5.824;2022-07-12T02:10:41;2.72;;;2.10;;
48526;SDS011;34317;51.660;5.824;2022-07-12T02:13:09;2.78;;;2.10;;
48526;SDS011;34317;51.660;5.824;2022-07-12T02:15:37;2.45;;;2.15;;
48526;SDS011;34317;51.660;5.824;2022-07-12T02:18:04;2.97;;;1.92;;
48526;SDS011;34317;51.660;5.824;2022-07-12T02:20:32;2.75;;;1.92;;
48526;SDS011;34317;51.660;5.824;2022-07-12T02:22:59;2.63;;;2.10;;
48526;SDS011;34317;51.660;5.824;2022-07-12T02:25:26;2.70;;;2.10;;
48526;SDS011;34317;51.660;5.824;2022-07-12T02:27:53;3.33;;;2.33;;
48526;SDS011;34317;51.660;5.824;2022-07-12T02:30:20;2.25;;;1.90;;
48526;SDS011;34317;51.660;5.824;2022-07-12T02:32:47;3.08;;;2.30;;
48526;SDS011;34317;51.660;5.824;2022-07-12T02:35:15;3.13;;;2.28;;
48526;SDS011;34317;51.660;5.824;2022-07-12T02:37:42;3.20;;;2.22;;
48526;SDS011;34317;51.660;5.824;2022-07-12T02:40:09;2.67;;;2.10;;
48526;SDS011;34317;51.660;5.824;2022-07-12T02:43:12;3.30;;;2.35;;
48526;SDS011;34317;51.660;5.824;2022-07-12T02:45:39;2.92;;;2.20;;
48526;SDS011;34317;51.660;5.824;2022-07-12T02:48:06;2.60;;;2.20;;
48526;SDS011;34317;51.660;5.824;2022-07-12T02:50:33;3.13;;;2.17;;
48526;SDS011;34317;51.660;5.824;2022-07-12T02:53:00;3.80;;;2.00;;
48526;SDS011;34317;51.660;5.824;2022-07-12T02:55:27;3.53;;;2.10;;
48526;SDS011;34317;51.660;5.824;2022-07-12T02:57:54;2.80;;;2.00;;
48526;SDS011;34317;51.660;5.824;2022-07-12T03:00:22;2.42;;;1.80;;
48526;SDS011;34317;51.660;5.824;2022-07-12T03:02:49;2.45;;;1.88;;
48526;SDS011;34317;51.660;5.824;2022-07-12T03:05:17;3.67;;;1.75;;
48526;SDS011;34317;51.660;5.824;2022-07-12T03:07:44;2.05;;;1.80;;
48526;SDS011;34317;51.660;5.824;2022-07-12T03:10:11;2.83;;;1.90;;
48526;SDS011;34317;51.660;5.824;2022-07-12T03:12:38;3.58;;;1.80;;
48526;SDS011;34317;51.660;5.824;2022-07-12T03:15:06;3.75;;;2.38;;
48526;SDS011;34317;51.660;5.824;2022-07-12T03:17:34;2.10;;;1.80;;
48526;SDS011;34317;51.660;5.824;2022-07-12T03:20:02;4.38;;;1.95;;
48526;SDS011;34317;51.660;5.824;2022-07-12T03:22:32;2.20;;;1.88;;
48526;SDS011;34317;51.660;5.824;2022-07-12T03:25:00;3.25;;;1.90;;
48526;SDS011;34317;51.660;5.824;2022-07-12T03:27:27;2.22;;;1.80;;
48526;SDS011;34317;51.660;5.824;2022-07-12T03:29:54;2.70;;;2.10;;
48526;SDS011;34317;51.660;5.824;2022-07-12T03:32:21;2.40;;;1.83;;
48526;SDS011;34317;51.660;5.824;2022-07-12T03:34:48;2.47;;;1.80;;
48526;SDS011;34317;51.660;5.824;2022-07-12T03:37:15;4.60;;;2.30;;
48526;SDS011;34317;51.660;5.824;2022-07-12T03:39:42;2.70;;;1.95;;
48526;SDS011;34317;51.660;5.824;2022-07-12T03:42:10;3.30;;;2.00;;
48526;SDS011;34317;51.660;5.824;2022-07-12T03:44:39;3.58;;;2.13;;
48526;SDS011;34317;51.660;5.824;2022-07-12T03:47:06;5.25;;;1.90;;
48526;SDS011;34317;51.660;5.824;2022-07-12T03:49:33;4.72;;;1.80;;
48526;SDS011;34317;51.660;5.824;2022-07-12T03:52:01;2.70;;;1.60;;
48526;SDS011;34317;51.660;5.824;2022-07-12T03:54:29;3.00;;;1.80;;
48526;SDS011;34317;51.660;5.824;2022-07-12T03:56:57;2.35;;;1.67;;
48526;SDS011;34317;51.660;5.824;2022-07-12T03:59:42;2.75;;;1.52;;
48526;SDS011;34317;51.660;5.824;2022-07-12T04:02:11;2.35;;;1.60;;
48526;SDS011;34317;51.660;5.824;2022-07-12T04:04:39;1.65;;;1.40;;
48526;SDS011;34317;51.660;5.824;2022-07-12T04:07:06;6.30;;;1.83;;
48526;SDS011;34317;51.660;5.824;2022-07-12T04:09:34;3.17;;;1.33;;
48526;SDS011;34317;51.660;5.824;2022-07-12T04:12:01;2.25;;;1.70;;
48526;SDS011;34317;51.660;5.824;2022-07-12T04:14:28;7.53;;;2.28;;
48526;SDS011;34317;51.660;5.824;2022-07-12T04:16:56;5.10;;;2.20;;
48526;SDS011;34317;51.660;5.824;2022-07-12T04:19:23;4.68;;;2.38;;
48526;SDS011;34317;51.660;5.824;2022-07-12T04:21:54;3.78;;;2.58;;
48526;SDS011;34317;51.660;5.824;2022-07-12T04:24:24;4.07;;;2.50;;
48526;SDS011;34317;51.660;5.824;2022-07-12T04:26:52;4.10;;;2.38;;
48526;SDS011;34317;51.660;5.824;2022-07-12T04:29:21;4.80;;;2.38;;
48526;SDS011;34317;51.660;5.824;2022-07-12T04:31:49;2.63;;;2.10;;
48526;SDS011;34317;51.660;5.824;2022-07-12T04:34:16;3.90;;;3.30;;
48526;SDS011;34317;51.660;5.824;2022-07-12T04:36:44;5.55;;;4.38;;
48526;SDS011;34317;51.660;5.824;2022-07-12T04:39:12;5.15;;;4.57;;
48526;SDS011;34317;51.660;5.824;2022-07-12T04:41:39;7.38;;;5.03;;
48526;SDS011;34317;51.660;5.824;2022-07-12T04:44:06;6.65;;;5.10;;
48526;SDS011;34317;51.660;5.824;2022-07-12T04:46:33;7.00;;;4.28;;
48526;SDS011;34317;51.660;5.824;2022-07-12T04:49:01;5.15;;;4.13;;
48526;SDS011;34317;51.660;5.824;2022-07-12T04:51:28;6.22;;;3.72;;
48526;SDS011;34317;51.660;5.824;2022-07-12T04:53:55;5.35;;;4.05;;
48526;SDS011;34317;51.660;5.824;2022-07-12T04:56:22;7.38;;;4.22;;
48526;SDS011;34317;51.660;5.824;2022-07-12T04:58:50;9.10;;;3.83;;
48526;SDS011;34317;51.660;5.824;2022-07-12T05:01:24;8.70;;;4.90;;
48526;SDS011;34317;51.660;5.824;2022-07-12T05:03:53;7.68;;;5.25;;
48526;SDS011;34317;51.660;5.824;2022-07-12T05:06:20;7.60;;;5.70;;
48526;SDS011;34317;51.660;5.824;2022-07-12T05:08:49;8.25;;;6.22;;
48526;SDS011;34317;51.660;5.824;2022-07-12T05:11:17;7.47;;;6.47;;
48526;SDS011;34317;51.660;5.824;2022-07-12T05:13:44;6.13;;;5.40;;
48526;SDS011;34317;51.660;5.824;2022-07-12T05:16:11;10.57;;;6.28;;
48526;SDS011;34317;51.660;5.824;2022-07-12T05:18:39;8.15;;;6.70;;
48526;SDS011;34317;51.660;5.824;2022-07-12T05:21:06;9.10;;;7.13;;
48526;SDS011;34317;51.660;5.824;2022-07-12T05:23:33;8.93;;;7.60;;
48526;SDS011;34317;51.660;5.824;2022-07-12T05:26:01;10.98;;;7.80;;
48526;SDS011;34317;51.660;5.824;2022-07-12T05:28:29;9.35;;;7.72;;
48526;SDS011;34317;51.660;5.824;2022-07-12T05:30:56;9.57;;;8.18;;
48526;SDS011;34317;51.660;5.824;2022-07-12T05:33:23;11.35;;;8.20;;
48526;SDS011;34317;51.660;5.824;2022-07-12T05:35:50;9.98;;;8.13;;
48526;SDS011;34317;51.660;5.824;2022-07-12T05:38:18;10.88;;;8.25;;
48526;SDS011;34317;51.660;5.824;2022-07-12T05:40:45;9.18;;;8.15;;
48526;SDS011;34317;51.660;5.824;2022-07-12T05:43:12;11.50;;;8.20;;
48526;SDS011;34317;51.660;5.824;2022-07-12T05:45:43;9.45;;;8.45;;
48526;SDS011;34317;51.660;5.824;2022-07-12T05:48:11;10.55;;;8.90;;
48526;SDS011;34317;51.660;5.824;2022-07-12T05:50:39;10.77;;;9.30;;
48526;SDS011;34317;51.660;5.824;2022-07-12T05:53:06;10.88;;;9.35;;
48526;SDS011;34317;51.660;5.824;2022-07-12T05:56:05;11.52;;;9.80;;
48526;SDS011;34317;51.660;5.824;2022-07-12T05:58:32;11.02;;;9.73;;
48526;SDS011;34317;51.660;5.824;2022-07-12T06:01:06;11.30;;;9.13;;
48526;SDS011;34317;51.660;5.824;2022-07-12T06:03:34;12.68;;;10.23;;
48526;SDS011;34317;51.660;5.824;2022-07-12T06:06:01;11.15;;;10.02;;
48526;SDS011;34317;51.660;5.824;2022-07-12T06:08:28;10.27;;;9.18;;
48526;SDS011;34317;51.660;5.824;2022-07-12T06:10:55;11.02;;;9.73;;
48526;SDS011;34317;51.660;5.824;2022-07-12T06:13:22;12.50;;;9.40;;
48526;SDS011;34317;51.660;5.824;2022-07-12T06:15:49;12.07;;;9.43;;
48526;SDS011;34317;51.660;5.824;2022-07-12T06:18:17;12.07;;;9.75;;
48526;SDS011;34317;51.660;5.824;2022-07-12T06:20:44;11.02;;;8.60;;
48526;SDS011;34317;51.660;5.824;2022-07-12T06:23:11;11.63;;;8.57;;
48526;SDS011;34317;51.660;5.824;2022-07-12T06:25:40;11.73;;;8.93;;
48526;SDS011;34317;51.660;5.824;2022-07-12T06:28:10;12.88;;;9.13;;
48526;SDS011;34317;51.660;5.824;2022-07-12T06:30:37;12.27;;;9.05;;
48526;SDS011;34317;51.660;5.824;2022-07-12T06:33:04;9.70;;;8.75;;
48526;SDS011;34317;51.660;5.824;2022-07-12T06:35:32;9.45;;;8.30;;
48526;SDS011;34317;51.660;5.824;2022-07-12T06:38:01;11.30;;;8.38;;
48526;SDS011;34317;51.660;5.824;2022-07-12T06:40:29;10.20;;;8.88;;
48526;SDS011;34317;51.660;5.824;2022-07-12T06:42:56;9.95;;;8.95;;
48526;SDS011;34317;51.660;5.824;2022-07-12T06:45:24;9.45;;;8.50;;
48526;SDS011;34317;51.660;5.824;2022-07-12T06:47:52;9.85;;;8.85;;
48526;SDS011;34317;51.660;5.824;2022-07-12T06:50:19;10.02;;;8.98;;
48526;SDS011;34317;51.660;5.824;2022-07-12T06:52:46;14.68;;;9.32;;
48526;SDS011;34317;51.660;5.824;2022-07-12T06:55:14;9.38;;;8.48;;
48526;SDS011;34317;51.660;5.824;2022-07-12T06:57:41;9.85;;;8.25;;
48526;SDS011;34317;51.660;5.824;2022-07-12T07:00:09;11.07;;;8.18;;
48526;SDS011;34317;51.660;5.824;2022-07-12T07:02:39;11.27;;;8.38;;
48526;SDS011;34317;51.660;5.824;2022-07-12T07:05:07;9.10;;;8.07;;
48526;SDS011;34317;51.660;5.824;2022-07-12T07:07:34;8.50;;;7.68;;
48526;SDS011;34317;51.660;5.824;2022-07-12T07:10:02;8.57;;;7.65;;
48526;SDS011;34317;51.660;5.824;2022-07-12T07:12:29;8.10;;;7.30;;
48526;SDS011;34317;51.660;5.824;2022-07-12T07:14:56;9.73;;;7.22;;
48526;SDS011;34317;51.660;5.824;2022-07-12T07:17:24;8.52;;;7.63;;
48526;SDS011;34317;51.660;5.824;2022-07-12T07:19:51;8.65;;;6.90;;
48526;SDS011;34317;51.660;5.824;2022-07-12T07:22:18;7.68;;;6.85;;
48526;SDS011;34317;51.660;5.824;2022-07-12T07:24:45;7.25;;;6.55;;
48526;SDS011;34317;51.660;5.824;2022-07-12T07:27:13;7.93;;;6.78;;
48526;SDS011;34317;51.660;5.824;2022-07-12T07:29:40;7.28;;;6.53;;
48526;SDS011;34317;51.660;5.824;2022-07-12T07:32:25;7.40;;;6.60;;
48526;SDS011;34317;51.660;5.824;2022-07-12T07:34:53;8.90;;;6.93;;
48526;SDS011;34317;51.660;5.824;2022-07-12T07:37:20;7.68;;;6.40;;
48526;SDS011;34317;51.660;5.824;2022-07-12T07:39:47;8.15;;;6.63;;
48526;SDS011;34317;51.660;5.824;2022-07-12T07:42:14;7.13;;;6.30;;
48526;SDS011;34317;51.660;5.824;2022-07-12T07:44:42;6.47;;;5.88;;
48526;SDS011;34317;51.660;5.824;2022-07-12T07:47:29;6.22;;;5.60;;
48526;SDS011;34317;51.660;5.824;2022-07-12T07:49:57;7.47;;;6.47;;
48526;SDS011;34317;51.660;5.824;2022-07-12T07:52:24;7.75;;;6.30;;
48526;SDS011;34317;51.660;5.824;2022-07-12T07:54:52;6.43;;;5.80;;
48526;SDS011;34317;51.660;5.824;2022-07-12T07:57:19;6.45;;;5.85;;
48526;SDS011;34317;51.660;5.824;2022-07-12T07:59:46;6.65;;;5.95;;
48526;SDS011;34317;51.660;5.824;2022-07-12T08:02:13;7.35;;;5.60;;
48526;SDS011;34317;51.660;5.824;2022-07-12T08:04:41;7.95;;;5.70;;
48526;SDS011;34317;51.660;5.824;2022-07-12T08:07:08;6.10;;;5.53;;
48526;SDS011;34317;51.660;5.824;2022-07-12T08:09:55;6.35;;;5.75;;
48526;SDS011;34317;51.660;5.824;2022-07-12T08:12:22;6.35;;;5.47;;
48526;SDS011;34317;51.660;5.824;2022-07-12T08:14:49;5.30;;;4.80;;
48526;SDS011;34317;51.660;5.824;2022-07-12T08:17:16;5.72;;;5.22;;
48526;SDS011;34317;51.660;5.824;2022-07-12T08:19:43;7.90;;;5.88;;
48526;SDS011;34317;51.660;5.824;2022-07-12T08:22:11;6.05;;;5.45;;
48526;SDS011;34317;51.660;5.824;2022-07-12T08:24:38;6.00;;;5.40;;
48526;SDS011;34317;51.660;5.824;2022-07-12T08:27:05;6.82;;;5.88;;
48526;SDS011;34317;51.660;5.824;2022-07-12T08:29:32;6.20;;;5.57;;
48526;SDS011;34317;51.660;5.824;2022-07-12T08:31:59;6.50;;;5.90;;
48526;SDS011;34317;51.660;5.824;2022-07-12T08:34:26;5.93;;;5.18;;
48526;SDS011;34317;51.660;5.824;2022-07-12T08:36:53;8.23;;;5.85;;
48526;SDS011;34317;51.660;5.824;2022-07-12T08:39:21;7.47;;;6.38;;
48526;SDS011;34317;51.660;5.824;2022-07-12T08:41:48;6.82;;;6.18;;
48526;SDS011;34317;51.660;5.824;2022-07-12T08:44:15;6.40;;;5.68;;
48526;SDS011;34317;51.660;5.824;2022-07-12T08:46:42;6.18;;;5.57;;
48526;SDS011;34317;51.660;5.824;2022-07-12T08:49:09;5.85;;;5.25;;
48526;SDS011;34317;51.660;5.824;2022-07-12T08:51:37;6.13;;;5.53;;
48526;SDS011;34317;51.660;5.824;2022-07-12T08:54:05;6.70;;;5.63;;
48526;SDS011;34317;51.660;5.824;2022-07-12T08:56:34;7.90;;;6.40;;
48526;SDS011;34317;51.660;5.824;2022-07-12T09:01:40;6.47;;;5.88;;
48526;SDS011;34317;51.660;5.824;2022-07-12T09:04:21;6.43;;;5.78;;
48526;SDS011;34317;51.660;5.824;2022-07-12T09:06:49;5.88;;;5.30;;
48526;SDS011;34317;51.660;5.824;2022-07-12T09:09:25;6.00;;;4.85;;
48526;SDS011;34317;51.660;5.824;2022-07-12T09:11:54;5.45;;;4.95;;
48526;SDS011;34317;51.660;5.824;2022-07-12T09:14:22;6.95;;;6.28;;
48526;SDS011;34317;51.660;5.824;2022-07-12T09:19:31;5.80;;;5.15;;
48526;SDS011;34317;51.660;5.824;2022-07-12T09:21:59;6.35;;;5.75;;
48526;SDS011;34317;51.660;5.824;2022-07-12T09:24:27;6.88;;;6.18;;
48526;SDS011;34317;51.660;5.824;2022-07-12T09:27:02;6.25;;;4.90;;
48526;SDS011;34317;51.660;5.824;2022-07-12T09:29:30;6.75;;;5.60;;
48526;SDS011;34317;51.660;5.824;2022-07-12T09:32:05;6.25;;;5.65;;
48526;SDS011;34317;51.660;5.824;2022-07-12T09:34:56;5.88;;;4.82;;
48526;SDS011;34317;51.660;5.824;2022-07-12T09:37:41;5.82;;;5.32;;
48526;SDS011;34317;51.660;5.824;2022-07-12T09:40:09;5.07;;;4.57;;
48526;SDS011;34317;51.660;5.824;2022-07-12T09:42:37;5.03;;;4.50;;
48526;SDS011;34317;51.660;5.824;2022-07-12T09:45:07;5.53;;;4.28;;
48526;SDS011;34317;51.660;5.824;2022-07-12T09:47:36;5.18;;;4.68;;
48526;SDS011;34317;51.660;5.824;2022-07-12T09:50:03;6.57;;;5.53;;
48526;SDS011;34317;51.660;5.824;2022-07-12T09:52:35;6.38;;;5.25;;
48526;SDS011;34317;51.660;5.824;2022-07-12T09:55:04;7.55;;;6.80;;
48526;SDS011;34317;51.660;5.824;2022-07-12T09:57:34;7.35;;;6.60;;
48526;SDS011;34317;51.660;5.824;2022-07-12T10:00:06;6.40;;;5.80;;
48526;SDS011;34317;51.660;5.824;2022-07-12T10:02:38;7.68;;;5.60;;
48526;SDS011;34317;51.660;5.824;2022-07-12T10:05:07;5.68;;;5.18;;
48526;SDS011;34317;51.660;5.824;2022-07-12T10:07:36;7.57;;;6.47;;
48526;SDS011;34317;51.660;5.824;2022-07-12T10:10:05;5.63;;;4.97;;
48526;SDS011;34317;51.660;5.824;2022-07-12T10:12:33;7.65;;;6.07;;
48526;SDS011;34317;51.660;5.824;2022-07-12T10:15:09;6.35;;;5.13;;
48526;SDS011;34317;51.660;5.824;2022-07-12T10:17:43;5.45;;;4.95;;
48526;SDS011;34317;51.660;5.824;2022-07-12T10:20:23;5.47;;;4.65;;
48526;SDS011;34317;51.660;5.824;2022-07-12T10:22:54;5.72;;;5.07;;
48526;SDS011;34317;51.660;5.824;2022-07-12T10:25:32;5.22;;;4.72;;
48526;SDS011;34317;51.660;5.824;2022-07-12T10:28:01;6.72;;;5.38;;
48526;SDS011;34317;51.660;5.824;2022-07-12T10:30:29;5.93;;;5.30;;
48526;SDS011;34317;51.660;5.824;2022-07-12T10:32:58;6.32;;;4.65;;
48526;SDS011;34317;51.660;5.824;2022-07-12T10:35:27;4.30;;;3.70;;
48526;SDS011;34317;51.660;5.824;2022-07-12T10:40:38;3.03;;;2.55;;
48526;SDS011;34317;51.660;5.824;2022-07-12T10:45:38;4.10;;;3.28;;
48526;SDS011;34317;51.660;5.824;2022-07-12T10:48:18;3.95;;;3.47;;
48526;SDS011;34317;51.660;5.824;2022-07-12T10:58:39;3.95;;;2.50;;
48526;SDS011;34317;51.660;5.824;2022-07-12T11:01:15;3.55;;;2.97;;
48526;SDS011;34317;51.660;5.824;2022-07-12T11:06:38;2.53;;;2.00;;
48526;SDS011;34317;51.660;5.824;2022-07-12T11:09:08;3.17;;;2.88;;
48526;SDS011;34317;51.660;5.824;2022-07-12T11:11:46;3.08;;;2.67;;
48526;SDS011;34317;51.660;5.824;2022-07-12T11:14:23;2.60;;;2.38;;
48526;SDS011;34317;51.660;5.824;2022-07-12T11:16:59;2.88;;;1.70;;
48526;SDS011;34317;51.660;5.824;2022-07-12T11:19:27;2.20;;;1.77;;
48526;SDS011;34317;51.660;5.824;2022-07-12T11:21:56;3.50;;;2.00;;
48526;SDS011;34317;51.660;5.824;2022-07-12T11:24:28;2.70;;;2.05;;
48526;SDS011;34317;51.660;5.824;2022-07-12T11:26:57;2.70;;;2.08;;
48526;SDS011;34317;51.660;5.824;2022-07-12T11:29:28;2.10;;;1.67;;
48526;SDS011;34317;51.660;5.824;2022-07-12T11:32:02;2.42;;;1.92;;
48526;SDS011;34317;51.660;5.824;2022-07-12T11:34:37;1.73;;;1.42;;
48526;SDS011;34317;51.660;5.824;2022-07-12T11:37:05;2.55;;;2.00;;
48526;SDS011;34317;51.660;5.824;2022-07-12T11:39:33;1.50;;;1.35;;
48526;SDS011;34317;51.660;5.824;2022-07-12T11:42:02;2.38;;;1.65;;
48526;SDS011;34317;51.660;5.824;2022-07-12T11:44:47;3.50;;;2.38;;
48526;SDS011;34317;51.660;5.824;2022-07-12T11:47:17;3.50;;;2.30;;
48526;SDS011;34317;51.660;5.824;2022-07-12T11:52:17;2.97;;;2.70;;
48526;SDS011;34317;51.660;5.824;2022-07-12T11:54:46;3.05;;;2.75;;
48526;SDS011;34317;51.660;5.824;2022-07-12T11:57:18;3.53;;;3.05;;
48526;SDS011;34317;51.660;5.824;2022-07-12T11:59:46;3.60;;;3.08;;
48526;SDS011;34317;51.660;5.824;2022-07-12T12:02:13;4.57;;;3.55;;
48526;SDS011;34317;51.660;5.824;2022-07-12T12:04:54;4.45;;;3.58;;
48526;SDS011;34317;51.660;5.824;2022-07-12T12:07:22;5.32;;;3.47;;
48526;SDS011;34317;51.660;5.824;2022-07-12T12:10:09;3.13;;;2.83;;
48526;SDS011;34317;51.660;5.824;2022-07-12T12:12:46;2.88;;;2.58;;
48526;SDS011;34317;51.660;5.824;2022-07-12T12:15:20;4.28;;;2.83;;
48526;SDS011;34317;51.660;5.824;2022-07-12T12:18:02;3.78;;;3.30;;
48526;SDS011;34317;51.660;5.824;2022-07-12T12:20:35;3.70;;;3.08;;
48526;SDS011;34317;51.660;5.824;2022-07-12T12:23:14;3.97;;;3.58;;
48526;SDS011;34317;51.660;5.824;2022-07-12T12:25:42;3.75;;;2.45;;
48526;SDS011;34317;51.660;5.824;2022-07-12T12:28:10;4.72;;;2.33;;
48526;SDS011;34317;51.660;5.824;2022-07-12T12:30:53;5.35;;;2.60;;
48526;SDS011;34317;51.660;5.824;2022-07-12T12:36:13;3.10;;;2.80;;
48526;SDS011;34317;51.660;5.824;2022-07-12T12:38:40;4.43;;;2.70;;
48526;SDS011;34317;51.660;5.824;2022-07-12T12:41:09;4.20;;;2.40;;
48526;SDS011;34317;51.660;5.824;2022-07-12T12:43:37;2.83;;;2.08;;
48526;SDS011;34317;51.660;5.824;2022-07-12T12:46:04;3.33;;;2.90;;
48526;SDS011;34317;51.660;5.824;2022-07-12T12:48:32;2.55;;;2.00;;
48526;SDS011;34317;51.660;5.824;2022-07-12T12:51:07;2.30;;;2.10;;
48526;SDS011;34317;51.660;5.824;2022-07-12T12:53:37;3.00;;;2.10;;
48526;SDS011;34317;51.660;5.824;2022-07-12T12:56:10;5.03;;;2.55;;
48526;SDS011;34317;51.660;5.824;2022-07-12T12:58:39;2.72;;;2.13;;
48526;SDS011;34317;51.660;5.824;2022-07-12T13:01:08;3.40;;;2.60;;
48526;SDS011;34317;51.660;5.824;2022-07-12T13:03:36;2.53;;;2.03;;
48526;SDS011;34317;51.660;5.824;2022-07-12T13:06:03;2.30;;;2.10;;
48526;SDS011;34317;51.660;5.824;2022-07-12T13:08:32;2.95;;;2.40;;
48526;SDS011;34317;51.660;5.824;2022-07-12T13:10:59;2.50;;;2.30;;
48526;SDS011;34317;51.660;5.824;2022-07-12T13:13:45;4.10;;;3.15;;
48526;SDS011;34317;51.660;5.824;2022-07-12T13:16:12;5.63;;;4.28;;
48526;SDS011;34317;51.660;5.824;2022-07-12T13:18:40;3.78;;;3.47;;
48526;SDS011;34317;51.660;5.824;2022-07-12T13:21:07;4.25;;;2.80;;
48526;SDS011;34317;51.660;5.824;2022-07-12T13:23:35;3.95;;;3.03;;
48526;SDS011;34317;51.660;5.824;2022-07-12T13:26:03;5.10;;;3.63;;
48526;SDS011;34317;51.660;5.824;2022-07-12T13:28:30;3.92;;;3.10;;
48526;SDS011;34317;51.660;5.824;2022-07-12T13:30:59;4.82;;;3.05;;
48526;SDS011;34317;51.660;5.824;2022-07-12T13:33:26;3.90;;;2.80;;
48526;SDS011;34317;51.660;5.824;2022-07-12T13:35:54;4.22;;;3.55;;
48526;SDS011;34317;51.660;5.824;2022-07-12T13:38:21;4.03;;;3.63;;
48526;SDS011;34317;51.660;5.824;2022-07-12T13:40:49;4.95;;;3.50;;
48526;SDS011;34317;51.660;5.824;2022-07-12T13:43:16;3.70;;;3.08;;
48526;SDS011;34317;51.660;5.824;2022-07-12T13:45:43;3.83;;;3.30;;
48526;SDS011;34317;51.660;5.824;2022-07-12T13:48:11;4.03;;;3.25;;
48526;SDS011;34317;51.660;5.824;2022-07-12T13:50:41;4.18;;;3.58;;
48526;SDS011;34317;51.660;5.824;2022-07-12T13:53:08;4.40;;;3.20;;
48526;SDS011;34317;51.660;5.824;2022-07-12T13:55:36;4.90;;;3.10;;
48526;SDS011;34317;51.660;5.824;2022-07-12T13:58:05;5.72;;;2.72;;
48526;SDS011;34317;51.660;5.824;2022-07-12T14:00:33;7.05;;;4.25;;
48526;SDS011;34317;51.660;5.824;2022-07-12T14:03:01;6.57;;;2.92;;
48526;SDS011;34317;51.660;5.824;2022-07-12T14:05:29;3.45;;;3.15;;
48526;SDS011;34317;51.660;5.824;2022-07-12T14:07:56;4.35;;;3.95;;
48526;SDS011;34317;51.660;5.824;2022-07-12T14:10:24;8.13;;;4.50;;
48526;SDS011;34317;51.660;5.824;2022-07-12T14:12:52;5.82;;;4.20;;
48526;SDS011;34317;51.660;5.824;2022-07-12T14:15:19;4.28;;;3.45;;
48526;SDS011;34317;51.660;5.824;2022-07-12T14:18:06;5.20;;;3.90;;
48526;SDS011;34317;51.660;5.824;2022-07-12T14:20:34;8.18;;;5.00;;
48526;SDS011;34317;51.660;5.824;2022-07-12T14:23:03;8.43;;;4.38;;
48526;SDS011;34317;51.660;5.824;2022-07-12T14:25:33;5.53;;;4.55;;
48526;SDS011;34317;51.660;5.824;2022-07-12T14:28:00;9.73;;;4.57;;
48526;SDS011;34317;51.660;5.824;2022-07-12T14:30:28;5.88;;;4.70;;
48526;SDS011;34317;51.660;5.824;2022-07-12T14:32:56;6.53;;;4.20;;
48526;SDS011;34317;51.660;5.824;2022-07-12T14:35:23;5.78;;;5.07;;
48526;SDS011;34317;51.660;5.824;2022-07-12T14:37:50;4.63;;;4.22;;
48526;SDS011;34317;51.660;5.824;2022-07-12T14:40:18;4.75;;;4.20;;
48526;SDS011;34317;51.660;5.824;2022-07-12T14:42:45;4.85;;;3.40;;
48526;SDS011;34317;51.660;5.824;2022-07-12T14:45:12;5.53;;;3.78;;
48526;SDS011;34317;51.660;5.824;2022-07-12T14:47:40;5.45;;;4.63;;
48526;SDS011;34317;51.660;5.824;2022-07-12T14:50:07;9.27;;;4.43;;
48526;SDS011;34317;51.660;5.824;2022-07-12T14:52:34;5.55;;;4.97;;
48526;SDS011;34317;51.660;5.824;2022-07-12T14:55:02;5.10;;;3.63;;
48526;SDS011;34317;51.660;5.824;2022-07-12T14:57:29;3.97;;;3.55;;
48526;SDS011;34317;51.660;5.824;2022-07-12T14:59:57;4.22;;;3.80;;
48526;SDS011;34317;51.660;5.824;2022-07-12T15:02:24;4.03;;;3.63;;
48526;SDS011;34317;51.660;5.824;2022-07-12T15:04:51;3.80;;;3.40;;
48526;SDS011;34317;51.660;5.824;2022-07-12T15:07:18;3.28;;;2.97;;
48526;SDS011;34317;51.660;5.824;2022-07-12T15:09:45;3.97;;;2.80;;
48526;SDS011;34317;51.660;5.824;2022-07-12T15:12:13;4.10;;;3.30;;
48526;SDS011;34317;51.660;5.824;2022-07-12T15:14:40;4.88;;;3.90;;
48526;SDS011;34317;51.660;5.824;2022-07-12T15:17:14;6.40;;;3.00;;
48526;SDS011;34317;51.660;5.824;2022-07-12T15:19:45;3.55;;;2.90;;
48526;SDS011;34317;51.660;5.824;2022-07-12T15:22:13;4.47;;;3.15;;